sensor_id;sensor_type;location;lat;lon;timestamp;temperature;humidity
6078;DHT22;3067;49.470;10.394;2024-01-16T00:02:02;-1.90;71.50
6078;DHT22;3067;49.470;10.394;2024-01-16T00:04:29;-1.90;71.40
6078;DHT22;3067;49.470;10.394;2024-01-16T00:06:56;-1.80;71.50
6078;DHT22;3067;49.470;10.394;2024-01-16T00:09:25;-1.90;71.50
6078;DHT22;3067;49.470;10.394;2024-01-16T00:11:52;-1.80;71.30
6078;DHT22;3067;49.470;10.394;2024-01-16T00:14:19;-1.80;71.30
6078;DHT22;3067;49.470;10.394;2024-01-16T00:16:46;-1.80;71.40
6078;DHT22;3067;49.470;10.394;2024-01-16T00:19:14;-1.80;71.30
6078;DHT22;3067;49.470;10.394;2024-01-16T00:21:42;-1.80;71.30
6078;DHT22;3067;49.470;10.394;2024-01-16T00:24:11;-1.90;71.30
6078;DHT22;3067;49.470;10.394;2024-01-16T00:26:40;-1.80;71.50
6078;DHT22;3067;49.470;10.394;2024-01-16T00:29:07;-1.90;71.20
6078;DHT22;3067;49.470;10.394;2024-01-16T00:31:37;-1.80;71.30
6078;DHT22;3067;49.470;10.394;2024-01-16T00:34:04;-1.80;71.30
6078;DHT22;3067;49.470;10.394;2024-01-16T00:36:31;-1.80;71.60
6078;DHT22;3067;49.470;10.394;2024-01-16T00:38:59;-1.80;71.40
6078;DHT22;3067;49.470;10.394;2024-01-16T00:41:26;-1.80;71.20
6078;DHT22;3067;49.470;10.394;2024-01-16T00:43:54;-1.80;71.20
6078;DHT22;3067;49.470;10.394;2024-01-16T00:46:22;-1.80;71.10
6078;DHT22;3067;49.470;10.394;2024-01-16T00:48:49;-1.80;71.40
6078;DHT22;3067;49.470;10.394;2024-01-16T00:51:16;-1.80;71.40
6078;DHT22;3067;49.470;10.394;2024-01-16T00:53:43;-1.80;71.40
6078;DHT22;3067;49.470;10.394;2024-01-16T00:56:11;-1.80;71.50
6078;DHT22;3067;49.470;10.394;2024-01-16T00:58:38;-1.80;71.60
6078;DHT22;3067;49.470;10.394;2024-01-16T01:01:07;-1.80;71.50
6078;DHT22;3067;49.470;10.394;2024-01-16T01:03:34;-1.80;71.50
6078;DHT22;3067;49.470;10.394;2024-01-16T01:06:01;-1.80;71.60
6078;DHT22;3067;49.470;10.394;2024-01-16T01:08:28;-1.90;71.70
6078;DHT22;3067;49.470;10.394;2024-01-16T01:10:55;-1.80;71.70
6078;DHT22;3067;49.470;10.394;2024-01-16T01:13:22;-1.80;71.80
6078;DHT22;3067;49.470;10.394;2024-01-16T01:15:50;-1.80;71.70
6078;DHT22;3067;49.470;10.394;2024-01-16T01:18:19;-1.80;71.70
6078;DHT22;3067;49.470;10.394;2024-01-16T01:20:46;-1.80;71.70
6078;DHT22;3067;49.470;10.394;2024-01-16T01:23:13;-1.80;71.70
6078;DHT22;3067;49.470;10.394;2024-01-16T01:25:40;-1.80;71.60
6078;DHT22;3067;49.470;10.394;2024-01-16T01:28:08;-1.90;71.90
6078;DHT22;3067;49.470;10.394;2024-01-16T01:30:36;-1.90;71.80
6078;DHT22;3067;49.470;10.394;2024-01-16T01:33:03;-1.90;71.70
6078;DHT22;3067;49.470;10.394;2024-01-16T01:35:32;-1.90;71.90
6078;DHT22;3067;49.470;10.394;2024-01-16T01:37:59;-1.80;71.70
6078;DHT22;3067;49.470;10.394;2024-01-16T01:40:26;-1.80;71.90
6078;DHT22;3067;49.470;10.394;2024-01-16T01:42:53;-1.80;71.30
6078;DHT22;3067;49.470;10.394;2024-01-16T01:45:20;-1.80;71.50
6078;DHT22;3067;49.470;10.394;2024-01-16T01:47:48;-1.80;71.60
6078;DHT22;3067;49.470;10.394;2024-01-16T01:50:15;-1.80;71.30
6078;DHT22;3067;49.470;10.394;2024-01-16T01:52:44;-1.90;71.50
6078;DHT22;3067;49.470;10.394;2024-01-16T01:55:12;-1.90;71.50
6078;DHT22;3067;49.470;10.394;2024-01-16T01:57:40;-1.80;71.50
6078;DHT22;3067;49.470;10.394;2024-01-16T02:00:10;-1.80;71.20
6078;DHT22;3067;49.470;10.394;2024-01-16T02:02:37;-1.80;71.50
6078;DHT22;3067;49.470;10.394;2024-01-16T02:05:05;-1.80;71.30
6078;DHT22;3067;49.470;10.394;2024-01-16T02:07:33;-1.80;71.30
6078;DHT22;3067;49.470;10.394;2024-01-16T02:10:03;-1.90;71.40
6078;DHT22;3067;49.470;10.394;2024-01-16T02:12:30;-1.90;71.50
6078;DHT22;3067;49.470;10.394;2024-01-16T02:14:57;-1.80;71.40
6078;DHT22;3067;49.470;10.394;2024-01-16T02:17:24;-1.80;71.50
6078;DHT22;3067;49.470;10.394;2024-01-16T02:19:51;-1.90;71.20
6078;DHT22;3067;49.470;10.394;2024-01-16T02:22:20;-1.90;71.50
6078;DHT22;3067;49.470;10.394;2024-01-16T02:24:51;-1.90;71.60
6078;DHT22;3067;49.470;10.394;2024-01-16T02:27:18;-1.80;71.60
6078;DHT22;3067;49.470;10.394;2024-01-16T02:29:45;-1.80;71.20
6078;DHT22;3067;49.470;10.394;2024-01-16T02:32:12;-1.80;71.40
6078;DHT22;3067;49.470;10.394;2024-01-16T02:34:40;-1.80;71.40
6078;DHT22;3067;49.470;10.394;2024-01-16T02:37:07;-1.90;71.10
6078;DHT22;3067;49.470;10.394;2024-01-16T02:39:34;-1.90;71.40
6078;DHT22;3067;49.470;10.394;2024-01-16T02:42:03;-1.90;71.50
6078;DHT22;3067;49.470;10.394;2024-01-16T02:44:30;-1.90;71.70
6078;DHT22;3067;49.470;10.394;2024-01-16T02:46:57;-2.00;71.70
6078;DHT22;3067;49.470;10.394;2024-01-16T02:49:24;-1.90;71.70
6078;DHT22;3067;49.470;10.394;2024-01-16T02:51:52;-1.90;71.50
6078;DHT22;3067;49.470;10.394;2024-01-16T02:54:20;-2.00;71.80
6078;DHT22;3067;49.470;10.394;2024-01-16T02:56:47;-2.00;71.90
6078;DHT22;3067;49.470;10.394;2024-01-16T02:59:15;-2.00;72.00
6078;DHT22;3067;49.470;10.394;2024-01-16T03:01:42;-2.10;72.10
6078;DHT22;3067;49.470;10.394;2024-01-16T03:04:09;-2.10;72.30
6078;DHT22;3067;49.470;10.394;2024-01-16T03:06:37;-2.10;72.30
6078;DHT22;3067;49.470;10.394;2024-01-16T03:09:04;-2.20;72.70
6078;DHT22;3067;49.470;10.394;2024-01-16T03:11:32;-2.20;72.90
6078;DHT22;3067;49.470;10.394;2024-01-16T03:13:59;-2.20;73.00
6078;DHT22;3067;49.470;10.394;2024-01-16T03:16:27;-2.20;72.90
6078;DHT22;3067;49.470;10.394;2024-01-16T03:18:54;-2.20;73.10
6078;DHT22;3067;49.470;10.394;2024-01-16T03:21:21;-2.10;72.90
6078;DHT22;3067;49.470;10.394;2024-01-16T03:23:49;-2.10;72.70
6078;DHT22;3067;49.470;10.394;2024-01-16T03:26:16;-2.20;72.60
6078;DHT22;3067;49.470;10.394;2024-01-16T03:28:43;-2.20;72.70
6078;DHT22;3067;49.470;10.394;2024-01-16T03:31:12;-2.20;72.70
6078;DHT22;3067;49.470;10.394;2024-01-16T03:33:41;-2.20;72.70
6078;DHT22;3067;49.470;10.394;2024-01-16T03:36:09;-2.20;72.90
6078;DHT22;3067;49.470;10.394;2024-01-16T03:38:38;-2.20;72.70
6078;DHT22;3067;49.470;10.394;2024-01-16T03:41:05;-2.20;72.80
6078;DHT22;3067;49.470;10.394;2024-01-16T03:43:33;-2.20;72.80
6078;DHT22;3067;49.470;10.394;2024-01-16T03:46:01;-2.20;72.80
6078;DHT22;3067;49.470;10.394;2024-01-16T03:48:28;-2.20;72.70
6078;DHT22;3067;49.470;10.394;2024-01-16T03:50:56;-2.10;72.70
6078;DHT22;3067;49.470;10.394;2024-01-16T03:53:23;-2.10;72.60
6078;DHT22;3067;49.470;10.394;2024-01-16T03:55:51;-2.10;72.60
6078;DHT22;3067;49.470;10.394;2024-01-16T03:58:18;-2.10;72.40
6078;DHT22;3067;49.470;10.394;2024-01-16T04:00:45;-2.10;72.30
6078;DHT22;3067;49.470;10.394;2024-01-16T04:03:12;-2.20;72.60
6078;DHT22;3067;49.470;10.394;2024-01-16T04:05:39;-2.20;72.70
6078;DHT22;3067;49.470;10.394;2024-01-16T04:08:08;-2.20;72.60
6078;DHT22;3067;49.470;10.394;2024-01-16T04:10:35;-2.20;72.60
6078;DHT22;3067;49.470;10.394;2024-01-16T04:13:03;-2.10;72.60
6078;DHT22;3067;49.470;10.394;2024-01-16T04:15:30;-2.10;72.70
6078;DHT22;3067;49.470;10.394;2024-01-16T04:17:57;-2.20;72.70
6078;DHT22;3067;49.470;10.394;2024-01-16T04:20:24;-2.10;72.60
6078;DHT22;3067;49.470;10.394;2024-01-16T04:22:51;-2.20;72.80
6078;DHT22;3067;49.470;10.394;2024-01-16T04:25:20;-2.10;72.80
6078;DHT22;3067;49.470;10.394;2024-01-16T04:27:47;-2.10;72.60
6078;DHT22;3067;49.470;10.394;2024-01-16T04:30:14;-2.10;72.80
6078;DHT22;3067;49.470;10.394;2024-01-16T04:32:41;-2.10;72.50
6078;DHT22;3067;49.470;10.394;2024-01-16T04:35:08;-2.10;72.60
6078;DHT22;3067;49.470;10.394;2024-01-16T04:37:36;-2.10;72.80
6078;DHT22;3067;49.470;10.394;2024-01-16T04:40:03;-2.10;73.00
6078;DHT22;3067;49.470;10.394;2024-01-16T04:42:33;-2.10;73.00
6078;DHT22;3067;49.470;10.394;2024-01-16T04:45:00;-2.10;73.00
6078;DHT22;3067;49.470;10.394;2024-01-16T04:47:27;-2.10;73.00
6078;DHT22;3067;49.470;10.394;2024-01-16T04:49:54;-2.10;72.60
6078;DHT22;3067;49.470;10.394;2024-01-16T04:52:21;-2.20;73.00
6078;DHT22;3067;49.470;10.394;2024-01-16T04:54:48;-2.20;73.00
6078;DHT22;3067;49.470;10.394;2024-01-16T04:57:15;-2.20;72.90
6078;DHT22;3067;49.470;10.394;2024-01-16T04:59:44;-2.20;73.00
6078;DHT22;3067;49.470;10.394;2024-01-16T05:02:11;-2.20;73.10
6078;DHT22;3067;49.470;10.394;2024-01-16T05:04:39;-2.20;72.80
6078;DHT22;3067;49.470;10.394;2024-01-16T05:07:06;-2.20;72.80
6078;DHT22;3067;49.470;10.394;2024-01-16T05:09:34;-2.20;73.10
6078;DHT22;3067;49.470;10.394;2024-01-16T05:12:01;-2.20;73.20
6078;DHT22;3067;49.470;10.394;2024-01-16T05:14:28;-2.20;73.00
6078;DHT22;3067;49.470;10.394;2024-01-16T05:16:57;-2.20;72.80
6078;DHT22;3067;49.470;10.394;2024-01-16T05:19:24;-2.10;72.70
6078;DHT22;3067;49.470;10.394;2024-01-16T05:21:51;-2.20;72.70
6078;DHT22;3067;49.470;10.394;2024-01-16T05:24:18;-2.10;72.80
6078;DHT22;3067;49.470;10.394;2024-01-16T05:26:45;-2.20;72.70
6078;DHT22;3067;49.470;10.394;2024-01-16T05:29:12;-2.20;73.00
6078;DHT22;3067;49.470;10.394;2024-01-16T05:31:40;-2.20;73.00
6078;DHT22;3067;49.470;10.394;2024-01-16T05:34:10;-2.20;73.00
6078;DHT22;3067;49.470;10.394;2024-01-16T05:36:37;-2.30;73.20
6078;DHT22;3067;49.470;10.394;2024-01-16T05:39:04;-2.20;73.20
6078;DHT22;3067;49.470;10.394;2024-01-16T05:41:33;-2.20;73.00
6078;DHT22;3067;49.470;10.394;2024-01-16T05:44:00;-2.20;72.80
6078;DHT22;3067;49.470;10.394;2024-01-16T05:46:29;-2.20;73.00
6078;DHT22;3067;49.470;10.394;2024-01-16T05:48:56;-2.20;73.10
6078;DHT22;3067;49.470;10.394;2024-01-16T05:51:26;-2.20;73.00
6078;DHT22;3067;49.470;10.394;2024-01-16T05:53:54;-2.20;73.10
6078;DHT22;3067;49.470;10.394;2024-01-16T05:56:21;-2.30;73.10
6078;DHT22;3067;49.470;10.394;2024-01-16T05:58:48;-2.20;73.10
6078;DHT22;3067;49.470;10.394;2024-01-16T06:01:15;-2.20;73.00
6078;DHT22;3067;49.470;10.394;2024-01-16T06:03:42;-2.20;73.00
6078;DHT22;3067;49.470;10.394;2024-01-16T06:06:12;-2.20;72.90
6078;DHT22;3067;49.470;10.394;2024-01-16T06:08:40;-2.20;72.80
6078;DHT22;3067;49.470;10.394;2024-01-16T06:11:07;-2.20;72.80
6078;DHT22;3067;49.470;10.394;2024-01-16T06:13:36;-2.20;72.60
6078;DHT22;3067;49.470;10.394;2024-01-16T06:16:05;-2.30;72.80
6078;DHT22;3067;49.470;10.394;2024-01-16T06:18:33;-2.30;72.60
6078;DHT22;3067;49.470;10.394;2024-01-16T06:21:00;-2.30;72.70
6078;DHT22;3067;49.470;10.394;2024-01-16T06:23:28;-2.30;72.80
6078;DHT22;3067;49.470;10.394;2024-01-16T06:25:56;-2.30;72.80
6078;DHT22;3067;49.470;10.394;2024-01-16T06:28:23;-2.30;72.70
6078;DHT22;3067;49.470;10.394;2024-01-16T06:30:50;-2.30;72.70
6078;DHT22;3067;49.470;10.394;2024-01-16T06:33:17;-2.30;72.40
6078;DHT22;3067;49.470;10.394;2024-01-16T06:35:44;-2.30;72.40
6078;DHT22;3067;49.470;10.394;2024-01-16T06:38:11;-2.40;72.20
6078;DHT22;3067;49.470;10.394;2024-01-16T06:40:38;-2.40;72.20
6078;DHT22;3067;49.470;10.394;2024-01-16T06:43:07;-2.40;71.90
6078;DHT22;3067;49.470;10.394;2024-01-16T06:45:34;-2.50;71.70
6078;DHT22;3067;49.470;10.394;2024-01-16T06:48:02;-2.60;71.90
6078;DHT22;3067;49.470;10.394;2024-01-16T06:50:29;-2.60;71.80
6078;DHT22;3067;49.470;10.394;2024-01-16T06:52:56;-2.60;71.40
6078;DHT22;3067;49.470;10.394;2024-01-16T06:55:23;-2.60;70.80
6078;DHT22;3067;49.470;10.394;2024-01-16T06:57:50;-2.60;70.60
6078;DHT22;3067;49.470;10.394;2024-01-16T07:00:19;-2.70;70.40
6078;DHT22;3067;49.470;10.394;2024-01-16T07:02:48;-2.80;70.50
6078;DHT22;3067;49.470;10.394;2024-01-16T07:05:17;-2.80;70.70
6078;DHT22;3067;49.470;10.394;2024-01-16T07:07:44;-2.80;70.70
6078;DHT22;3067;49.470;10.394;2024-01-16T07:10:11;-2.90;70.50
6078;DHT22;3067;49.470;10.394;2024-01-16T07:12:43;-2.90;70.40
6078;DHT22;3067;49.470;10.394;2024-01-16T07:15:11;-2.90;70.70
6078;DHT22;3067;49.470;10.394;2024-01-16T07:17:40;-3.00;70.70
6078;DHT22;3067;49.470;10.394;2024-01-16T07:20:08;-3.00;70.50
6078;DHT22;3067;49.470;10.394;2024-01-16T07:22:36;-3.10;70.50
6078;DHT22;3067;49.470;10.394;2024-01-16T07:25:05;-3.10;70.50
6078;DHT22;3067;49.470;10.394;2024-01-16T07:27:32;-3.10;70.70
6078;DHT22;3067;49.470;10.394;2024-01-16T07:30:00;-3.10;70.70
6078;DHT22;3067;49.470;10.394;2024-01-16T07:32:27;-3.10;70.90
6078;DHT22;3067;49.470;10.394;2024-01-16T07:34:55;-3.00;70.90
6078;DHT22;3067;49.470;10.394;2024-01-16T07:37:22;-3.00;70.80
6078;DHT22;3067;49.470;10.394;2024-01-16T07:39:49;-3.10;70.90
6078;DHT22;3067;49.470;10.394;2024-01-16T07:42:16;-3.00;70.90
6078;DHT22;3067;49.470;10.394;2024-01-16T07:44:44;-3.00;70.90
6078;DHT22;3067;49.470;10.394;2024-01-16T07:47:11;-2.90;70.70
6078;DHT22;3067;49.470;10.394;2024-01-16T07:49:38;-2.80;70.40
6078;DHT22;3067;49.470;10.394;2024-01-16T07:52:06;-2.80;70.30
6078;DHT22;3067;49.470;10.394;2024-01-16T07:54:33;-2.80;70.10
6078;DHT22;3067;49.470;10.394;2024-01-16T07:57:00;-2.80;70.20
6078;DHT22;3067;49.470;10.394;2024-01-16T07:59:27;-2.80;70.20
6078;DHT22;3067;49.470;10.394;2024-01-16T08:01:54;-2.70;70.30
6078;DHT22;3067;49.470;10.394;2024-01-16T08:04:22;-2.70;70.40
6078;DHT22;3067;49.470;10.394;2024-01-16T08:06:49;-2.70;70.40
6078;DHT22;3067;49.470;10.394;2024-01-16T08:09:18;-2.60;70.50
6078;DHT22;3067;49.470;10.394;2024-01-16T08:11:46;-2.60;70.80
6078;DHT22;3067;49.470;10.394;2024-01-16T08:14:13;-2.50;70.70
6078;DHT22;3067;49.470;10.394;2024-01-16T08:16:40;-2.50;70.60
6078;DHT22;3067;49.470;10.394;2024-01-16T08:19:07;-2.50;70.50
6078;DHT22;3067;49.470;10.394;2024-01-16T08:21:34;-2.40;70.60
6078;DHT22;3067;49.470;10.394;2024-01-16T08:24:09;-2.40;70.80
6078;DHT22;3067;49.470;10.394;2024-01-16T08:26:38;-2.40;71.10
6078;DHT22;3067;49.470;10.394;2024-01-16T08:29:07;-2.40;71.10
6078;DHT22;3067;49.470;10.394;2024-01-16T08:31:46;-2.30;71.00
6078;DHT22;3067;49.470;10.394;2024-01-16T08:34:13;-2.30;71.00
6078;DHT22;3067;49.470;10.394;2024-01-16T08:36:43;-2.30;71.00
6078;DHT22;3067;49.470;10.394;2024-01-16T08:39:12;-2.20;71.00
6078;DHT22;3067;49.470;10.394;2024-01-16T08:41:42;-2.20;70.70
6078;DHT22;3067;49.470;10.394;2024-01-16T08:44:13;-2.10;70.40
6078;DHT22;3067;49.470;10.394;2024-01-16T08:46:45;-2.10;69.80
6078;DHT22;3067;49.470;10.394;2024-01-16T08:49:13;-2.10;70.10
6078;DHT22;3067;49.470;10.394;2024-01-16T08:51:40;-2.10;70.00
6078;DHT22;3067;49.470;10.394;2024-01-16T08:54:07;-2.10;70.10
6078;DHT22;3067;49.470;10.394;2024-01-16T08:56:34;-2.10;70.00
6078;DHT22;3067;49.470;10.394;2024-01-16T08:59:03;-2.10;69.50
6078;DHT22;3067;49.470;10.394;2024-01-16T09:01:30;-1.90;69.60
6078;DHT22;3067;49.470;10.394;2024-01-16T09:03:59;-1.90;69.60
6078;DHT22;3067;49.470;10.394;2024-01-16T09:06:26;-1.80;69.50
6078;DHT22;3067;49.470;10.394;2024-01-16T09:08:53;-1.70;69.10
6078;DHT22;3067;49.470;10.394;2024-01-16T09:11:23;-1.70;69.00
6078;DHT22;3067;49.470;10.394;2024-01-16T09:13:50;-1.60;69.20
6078;DHT22;3067;49.470;10.394;2024-01-16T09:16:18;-1.50;68.90
6078;DHT22;3067;49.470;10.394;2024-01-16T09:18:45;-1.30;68.50
6078;DHT22;3067;49.470;10.394;2024-01-16T09:21:14;-1.30;68.10
6078;DHT22;3067;49.470;10.394;2024-01-16T09:23:41;-1.20;67.20
6078;DHT22;3067;49.470;10.394;2024-01-16T09:26:09;-1.10;66.90
6078;DHT22;3067;49.470;10.394;2024-01-16T09:28:37;-1.00;66.50
6078;DHT22;3067;49.470;10.394;2024-01-16T09:31:06;-1.00;66.10
6078;DHT22;3067;49.470;10.394;2024-01-16T09:33:35;-0.80;66.00
6078;DHT22;3067;49.470;10.394;2024-01-16T09:36:02;-1.00;65.50
6078;DHT22;3067;49.470;10.394;2024-01-16T09:38:30;-0.90;65.60
6078;DHT22;3067;49.470;10.394;2024-01-16T09:40:57;-0.70;65.80
6078;DHT22;3067;49.470;10.394;2024-01-16T09:43:26;-0.70;65.00
6078;DHT22;3067;49.470;10.394;2024-01-16T09:45:55;-0.70;64.40
6078;DHT22;3067;49.470;10.394;2024-01-16T09:48:22;-0.70;64.40
6078;DHT22;3067;49.470;10.394;2024-01-16T09:50:51;-0.70;64.40
6078;DHT22;3067;49.470;10.394;2024-01-16T09:53:18;-0.60;64.80
6078;DHT22;3067;49.470;10.394;2024-01-16T09:55:45;-0.60;63.50
6078;DHT22;3067;49.470;10.394;2024-01-16T09:58:13;-0.60;64.20
6078;DHT22;3067;49.470;10.394;2024-01-16T10:00:42;-0.60;63.40
6078;DHT22;3067;49.470;10.394;2024-01-16T10:03:11;-0.60;63.40
6078;DHT22;3067;49.470;10.394;2024-01-16T10:05:40;-0.60;63.70
6078;DHT22;3067;49.470;10.394;2024-01-16T10:08:09;-0.60;63.30
6078;DHT22;3067;49.470;10.394;2024-01-16T10:10:36;-0.60;62.70
6078;DHT22;3067;49.470;10.394;2024-01-16T10:13:05;-0.70;63.30
6078;DHT22;3067;49.470;10.394;2024-01-16T10:15:32;-0.70;63.00
6078;DHT22;3067;49.470;10.394;2024-01-16T10:18:00;-0.70;62.30
6078;DHT22;3067;49.470;10.394;2024-01-16T10:20:34;-0.90;63.60
6078;DHT22;3067;49.470;10.394;2024-01-16T10:23:02;-0.80;62.40
6078;DHT22;3067;49.470;10.394;2024-01-16T10:25:31;-0.70;63.90
6078;DHT22;3067;49.470;10.394;2024-01-16T10:28:06;-0.60;63.40
6078;DHT22;3067;49.470;10.394;2024-01-16T10:30:37;-0.60;62.70
6078;DHT22;3067;49.470;10.394;2024-01-16T10:33:14;-0.60;62.50
6078;DHT22;3067;49.470;10.394;2024-01-16T10:35:42;-0.50;62.10
6078;DHT22;3067;49.470;10.394;2024-01-16T10:38:09;-0.50;61.00
6078;DHT22;3067;49.470;10.394;2024-01-16T10:40:37;-0.50;61.00
6078;DHT22;3067;49.470;10.394;2024-01-16T10:43:04;-0.40;60.70
6078;DHT22;3067;49.470;10.394;2024-01-16T10:45:32;-0.40;61.50
6078;DHT22;3067;49.470;10.394;2024-01-16T10:48:04;-0.50;61.70
6078;DHT22;3067;49.470;10.394;2024-01-16T10:50:31;-0.40;61.40
6078;DHT22;3067;49.470;10.394;2024-01-16T10:53:00;-0.40;61.00
6078;DHT22;3067;49.470;10.394;2024-01-16T10:55:30;-0.40;60.60
6078;DHT22;3067;49.470;10.394;2024-01-16T10:58:03;-0.40;60.80
6078;DHT22;3067;49.470;10.394;2024-01-16T11:00:33;-0.40;60.90
6078;DHT22;3067;49.470;10.394;2024-01-16T11:03:06;-0.30;60.80
6078;DHT22;3067;49.470;10.394;2024-01-16T11:05:34;-0.20;60.70
6078;DHT22;3067;49.470;10.394;2024-01-16T11:08:03;-0.10;60.50
6078;DHT22;3067;49.470;10.394;2024-01-16T11:10:32;-0.10;60.70
6078;DHT22;3067;49.470;10.394;2024-01-16T11:13:02;-0.10;60.30
6078;DHT22;3067;49.470;10.394;2024-01-16T11:15:30;-0.10;59.80
6078;DHT22;3067;49.470;10.394;2024-01-16T11:17:59;0.00;60.00
6078;DHT22;3067;49.470;10.394;2024-01-16T11:20:27;0.00;59.40
6078;DHT22;3067;49.470;10.394;2024-01-16T11:22:55;0.00;59.60
6078;DHT22;3067;49.470;10.394;2024-01-16T11:25:31;0.10;59.10
6078;DHT22;3067;49.470;10.394;2024-01-16T11:28:08;0.10;58.70
6078;DHT22;3067;49.470;10.394;2024-01-16T11:30:35;0.00;58.70
6078;DHT22;3067;49.470;10.394;2024-01-16T11:33:02;0.00;58.60
6078;DHT22;3067;49.470;10.394;2024-01-16T11:35:35;0.00;59.30
6078;DHT22;3067;49.470;10.394;2024-01-16T11:38:06;-0.10;58.90
6078;DHT22;3067;49.470;10.394;2024-01-16T11:40:35;-0.10;59.80
6078;DHT22;3067;49.470;10.394;2024-01-16T11:43:35;-0.10;59.60
6078;DHT22;3067;49.470;10.394;2024-01-16T11:46:05;0.10;59.40
6078;DHT22;3067;49.470;10.394;2024-01-16T11:48:33;0.20;58.20
6078;DHT22;3067;49.470;10.394;2024-01-16T11:51:00;0.30;58.50
6078;DHT22;3067;49.470;10.394;2024-01-16T11:53:35;0.40;58.50
6078;DHT22;3067;49.470;10.394;2024-01-16T11:59:14;0.60;57.20
6078;DHT22;3067;49.470;10.394;2024-01-16T12:01:45;0.60;56.80
6078;DHT22;3067;49.470;10.394;2024-01-16T12:04:16;0.50;56.80
6078;DHT22;3067;49.470;10.394;2024-01-16T12:06:57;0.60;57.20
6078;DHT22;3067;49.470;10.394;2024-01-16T12:09:26;0.80;56.60
6078;DHT22;3067;49.470;10.394;2024-01-16T12:11:56;1.00;56.50
6078;DHT22;3067;49.470;10.394;2024-01-16T12:14:25;1.10;56.40
6078;DHT22;3067;49.470;10.394;2024-01-16T12:16:53;1.40;55.40
6078;DHT22;3067;49.470;10.394;2024-01-16T12:19:20;1.50;54.50
6078;DHT22;3067;49.470;10.394;2024-01-16T12:21:47;1.60;54.50
6078;DHT22;3067;49.470;10.394;2024-01-16T12:24:16;1.70;54.90
6078;DHT22;3067;49.470;10.394;2024-01-16T12:26:44;1.80;52.80
6078;DHT22;3067;49.470;10.394;2024-01-16T12:29:11;1.90;53.10
6078;DHT22;3067;49.470;10.394;2024-01-16T12:31:39;2.00;52.90
6078;DHT22;3067;49.470;10.394;2024-01-16T12:34:07;2.00;53.20
6078;DHT22;3067;49.470;10.394;2024-01-16T12:36:34;2.00;52.70
6078;DHT22;3067;49.470;10.394;2024-01-16T12:39:02;2.10;52.00
6078;DHT22;3067;49.470;10.394;2024-01-16T12:41:34;2.10;51.70
6078;DHT22;3067;49.470;10.394;2024-01-16T12:44:03;2.10;52.20
6078;DHT22;3067;49.470;10.394;2024-01-16T12:46:30;2.10;51.60
6078;DHT22;3067;49.470;10.394;2024-01-16T12:49:02;1.90;51.10
6078;DHT22;3067;49.470;10.394;2024-01-16T12:51:29;1.80;52.10
6078;DHT22;3067;49.470;10.394;2024-01-16T12:54:10;1.80;52.00
6078;DHT22;3067;49.470;10.394;2024-01-16T12:56:38;1.70;52.10
6078;DHT22;3067;49.470;10.394;2024-01-16T12:59:09;1.60;51.70
6078;DHT22;3067;49.470;10.394;2024-01-16T13:01:40;1.70;52.50
6078;DHT22;3067;49.470;10.394;2024-01-16T13:04:11;1.80;53.70
6078;DHT22;3067;49.470;10.394;2024-01-16T13:06:38;2.30;52.00
6078;DHT22;3067;49.470;10.394;2024-01-16T13:09:10;2.70;49.80
6078;DHT22;3067;49.470;10.394;2024-01-16T13:11:50;3.00;47.90
6078;DHT22;3067;49.470;10.394;2024-01-16T13:14:18;2.80;47.50
6078;DHT22;3067;49.470;10.394;2024-01-16T13:16:46;2.70;48.90
6078;DHT22;3067;49.470;10.394;2024-01-16T13:19:17;2.70;49.10
6078;DHT22;3067;49.470;10.394;2024-01-16T13:21:45;2.40;49.20
6078;DHT22;3067;49.470;10.394;2024-01-16T13:24:12;2.30;50.00
6078;DHT22;3067;49.470;10.394;2024-01-16T13:26:39;2.30;50.70
6078;DHT22;3067;49.470;10.394;2024-01-16T13:29:07;2.20;50.90
6078;DHT22;3067;49.470;10.394;2024-01-16T13:31:34;2.20;50.20
6078;DHT22;3067;49.470;10.394;2024-01-16T13:34:01;2.20;50.50
6078;DHT22;3067;49.470;10.394;2024-01-16T13:36:30;2.30;49.40
6078;DHT22;3067;49.470;10.394;2024-01-16T13:38:57;2.00;50.40
6078;DHT22;3067;49.470;10.394;2024-01-16T13:41:24;2.00;50.90
6078;DHT22;3067;49.470;10.394;2024-01-16T13:43:51;2.00;51.20
6078;DHT22;3067;49.470;10.394;2024-01-16T13:46:18;2.00;51.20
6078;DHT22;3067;49.470;10.394;2024-01-16T13:48:45;2.10;51.70
6078;DHT22;3067;49.470;10.394;2024-01-16T13:51:12;2.00;52.10
6078;DHT22;3067;49.470;10.394;2024-01-16T13:53:42;1.70;52.90
6078;DHT22;3067;49.470;10.394;2024-01-16T13:56:09;1.60;53.40
6078;DHT22;3067;49.470;10.394;2024-01-16T13:58:37;1.50;53.20
6078;DHT22;3067;49.470;10.394;2024-01-16T14:01:04;1.40;53.80
6078;DHT22;3067;49.470;10.394;2024-01-16T14:03:32;1.30;53.90
6078;DHT22;3067;49.470;10.394;2024-01-16T14:05:59;1.10;54.30
6078;DHT22;3067;49.470;10.394;2024-01-16T14:08:26;1.00;54.80
6078;DHT22;3067;49.470;10.394;2024-01-16T14:10:54;1.00;55.30
6078;DHT22;3067;49.470;10.394;2024-01-16T14:13:21;1.10;55.50
6078;DHT22;3067;49.470;10.394;2024-01-16T14:15:50;1.10;55.50
6078;DHT22;3067;49.470;10.394;2024-01-16T14:18:17;1.20;55.10
6078;DHT22;3067;49.470;10.394;2024-01-16T14:20:45;1.20;55.20
6078;DHT22;3067;49.470;10.394;2024-01-16T14:23:12;1.10;54.70
6078;DHT22;3067;49.470;10.394;2024-01-16T14:25:39;1.00;55.10
6078;DHT22;3067;49.470;10.394;2024-01-16T14:28:07;1.00;54.90
6078;DHT22;3067;49.470;10.394;2024-01-16T14:30:37;0.80;55.80
6078;DHT22;3067;49.470;10.394;2024-01-16T14:33:04;0.80;55.90
6078;DHT22;3067;49.470;10.394;2024-01-16T14:35:33;0.70;55.50
6078;DHT22;3067;49.470;10.394;2024-01-16T14:38:00;0.60;56.00
6078;DHT22;3067;49.470;10.394;2024-01-16T14:40:28;0.60;55.90
6078;DHT22;3067;49.470;10.394;2024-01-16T14:42:55;0.50;56.10
6078;DHT22;3067;49.470;10.394;2024-01-16T14:45:26;0.50;56.80
6078;DHT22;3067;49.470;10.394;2024-01-16T14:47:53;0.40;56.90
6078;DHT22;3067;49.470;10.394;2024-01-16T14:50:20;0.50;57.30
6078;DHT22;3067;49.470;10.394;2024-01-16T14:52:50;0.50;57.40
6078;DHT22;3067;49.470;10.394;2024-01-16T14:55:17;0.40;57.10
6078;DHT22;3067;49.470;10.394;2024-01-16T14:57:46;0.40;57.00
6078;DHT22;3067;49.470;10.394;2024-01-16T15:00:17;0.30;57.30
6078;DHT22;3067;49.470;10.394;2024-01-16T15:02:51;0.30;57.30
6078;DHT22;3067;49.470;10.394;2024-01-16T15:05:18;0.10;57.70
6078;DHT22;3067;49.470;10.394;2024-01-16T15:07:46;0.10;57.70
6078;DHT22;3067;49.470;10.394;2024-01-16T15:10:13;0.20;57.90
6078;DHT22;3067;49.470;10.394;2024-01-16T15:12:42;0.20;57.90
6078;DHT22;3067;49.470;10.394;2024-01-16T15:15:10;0.10;58.10
6078;DHT22;3067;49.470;10.394;2024-01-16T15:17:39;0.00;58.10
6078;DHT22;3067;49.470;10.394;2024-01-16T15:20:09;0.00;58.20
6078;DHT22;3067;49.470;10.394;2024-01-16T15:22:37;-0.10;58.20
6078;DHT22;3067;49.470;10.394;2024-01-16T15:25:06;-0.10;58.50
6078;DHT22;3067;49.470;10.394;2024-01-16T15:27:33;-0.20;57.90
6078;DHT22;3067;49.470;10.394;2024-01-16T15:30:01;-0.20;57.90
6078;DHT22;3067;49.470;10.394;2024-01-16T15:32:29;-0.30;58.20
6078;DHT22;3067;49.470;10.394;2024-01-16T15:34:56;-0.30;58.40
6078;DHT22;3067;49.470;10.394;2024-01-16T15:37:25;-0.30;58.50
6078;DHT22;3067;49.470;10.394;2024-01-16T15:39:52;-0.30;58.30
6078;DHT22;3067;49.470;10.394;2024-01-16T15:42:19;-0.30;58.60
6078;DHT22;3067;49.470;10.394;2024-01-16T15:44:46;-0.30;58.90
6078;DHT22;3067;49.470;10.394;2024-01-16T15:47:13;-0.40;58.60
6078;DHT22;3067;49.470;10.394;2024-01-16T15:49:40;-0.50;58.70
6078;DHT22;3067;49.470;10.394;2024-01-16T15:52:07;-0.50;58.80
6078;DHT22;3067;49.470;10.394;2024-01-16T15:54:36;-0.50;58.60
6078;DHT22;3067;49.470;10.394;2024-01-16T15:57:03;-0.40;58.80
6078;DHT22;3067;49.470;10.394;2024-01-16T15:59:30;-0.40;58.50